createdAt,value
2022-09-23T00:01:26.751Z,5.27
2022-09-23T00:03:54.806Z,9.55
2022-09-23T00:06:24.450Z,3.30
2022-09-23T00:08:52.901Z,3.60
2022-09-23T00:11:28.676Z,2.73
2022-09-23T00:14:00.128Z,5.83
2022-09-23T00:16:32.648Z,3.77
2022-09-23T00:19:02.469Z,3.70
2022-09-23T00:21:30.211Z,3.03
2022-09-23T00:23:57.968Z,5.53
2022-09-23T00:26:25.751Z,4.33
2022-09-23T00:28:53.647Z,3.90
2022-09-23T00:31:26.030Z,4.23
2022-09-23T00:33:56.809Z,3.17
2022-09-23T00:36:26.301Z,4.13
2022-09-23T00:38:55.104Z,4.77
2022-09-23T00:41:23.200Z,4.10
2022-09-23T00:43:50.818Z,3.03
2022-09-23T00:46:23.539Z,3.20
2022-09-23T00:49:03.079Z,5.70
2022-09-23T00:51:38.645Z,4.50
2022-09-23T00:54:07.013Z,3.57
2022-09-23T00:56:36.837Z,3.63
2022-09-23T00:59:07.456Z,4.10
2022-09-23T01:01:37.394Z,4.47
2022-09-23T01:04:07.923Z,3.87
2022-09-23T01:06:36.217Z,3.73
2022-09-23T01:09:04.581Z,3.53
2022-09-23T01:12:00.750Z,3.20
2022-09-23T01:14:55.976Z,4.67
2022-09-23T01:17:34.418Z,4.23
2022-09-23T01:20:35.847Z,5.33
2022-09-23T01:23:42.646Z,6.43
2022-09-23T01:26:37.499Z,6.10
2022-09-23T01:29:29.610Z,4.00
2022-09-23T01:32:07.023Z,5.43
2022-09-23T01:34:47.238Z,5.13
2022-09-23T01:37:32.148Z,5.47
2022-09-23T01:40:54.163Z,5.47
2022-09-23T01:43:40.903Z,5.23
2022-09-23T01:46:31.566Z,4.30
2022-09-23T01:49:31.706Z,3.43
2022-09-23T01:52:17.921Z,3.87
2022-09-23T01:55:06.021Z,4.50
2022-09-23T01:57:43.710Z,3.97
2022-09-23T02:00:17.277Z,3.60
2022-09-23T02:03:27.488Z,3.58
2022-09-23T02:06:39.065Z,4.10
2022-09-23T02:09:15.777Z,4.17
2022-09-23T02:11:49.157Z,4.90
2022-09-23T02:14:30.474Z,3.70
2022-09-23T02:17:08.533Z,5.27
2022-09-23T02:19:54.028Z,5.37
2022-09-23T02:22:56.107Z,3.70
2022-09-23T02:25:35.485Z,3.73
2022-09-23T02:28:20.118Z,3.90
2022-09-23T02:31:01.684Z,4.27
2022-09-23T02:34:08.606Z,4.27
2022-09-23T02:36:56.172Z,3.77
2022-09-23T02:39:50.094Z,5.30
2022-09-23T02:42:24.300Z,4.07
2022-09-23T02:44:52.201Z,5.03
2022-09-23T02:47:27.936Z,5.50
2022-09-23T02:49:56.440Z,4.87
2022-09-23T02:52:25.125Z,4.70
2022-09-23T02:54:53.147Z,4.70
2022-09-23T02:57:21.080Z,4.50
2022-09-23T02:59:50.592Z,3.70
2022-09-23T03:02:34.506Z,5.30
2022-09-23T03:05:05.250Z,3.97
2022-09-23T03:08:07.532Z,5.20
2022-09-23T03:10:59.512Z,5.43
2022-09-23T03:13:51.344Z,7.17
2022-09-23T03:16:32.494Z,4.30
2022-09-23T03:19:42.413Z,7.30
2022-09-23T03:22:24.448Z,4.37
2022-09-23T03:24:56.013Z,5.17
2022-09-23T03:27:27.474Z,5.70
2022-09-23T03:29:56.894Z,5.63
2022-09-23T03:32:28.215Z,5.17
2022-09-23T03:34:59.906Z,5.93
2022-09-23T03:37:44.191Z,4.60
2022-09-23T03:40:33.746Z,4.80
2022-09-23T03:43:05.165Z,4.50
2022-09-23T03:45:34.693Z,5.93
2022-09-23T03:48:03.084Z,5.10
2022-09-23T03:50:30.850Z,4.20
2022-09-23T03:52:59.385Z,7.57
2022-09-23T03:55:27.375Z,4.03
2022-09-23T03:57:55.756Z,4.93
2022-09-23T04:00:23.597Z,4.00
2022-09-23T04:02:51.374Z,6.43
2022-09-23T04:05:19.189Z,5.23
2022-09-23T04:07:48.154Z,5.97
2022-09-23T04:10:16.019Z,4.47
2022-09-23T04:12:43.782Z,4.03
2022-09-23T04:15:11.944Z,7.87
2022-09-23T04:17:39.788Z,5.17
2022-09-23T04:20:07.958Z,6.03
2022-09-23T04:22:38.697Z,4.43
2022-09-23T04:25:07.375Z,5.70
2022-09-23T04:27:37.745Z,4.47
2022-09-23T04:30:07.093Z,6.67
2022-09-23T04:32:34.850Z,5.33
2022-09-23T04:35:02.625Z,4.93
2022-09-23T04:37:30.479Z,5.37
2022-09-23T04:39:58.238Z,5.50
2022-09-23T04:42:30.095Z,5.50
2022-09-23T04:44:58.099Z,4.67
2022-09-23T04:47:26.187Z,5.57
2022-09-23T04:49:57.759Z,5.67
2022-09-23T04:52:27.481Z,5.95
2022-09-23T04:54:55.245Z,4.47
2022-09-23T04:57:23.220Z,5.10
2022-09-23T04:59:51.107Z,4.63
2022-09-23T05:02:18.974Z,4.80
2022-09-23T05:04:46.977Z,9.90
2022-09-23T05:07:15.341Z,6.37
2022-09-23T05:09:43.098Z,5.50
2022-09-23T05:12:11.445Z,5.33
2022-09-23T05:14:39.249Z,7.50
2022-09-23T05:17:07.092Z,6.77
2022-09-23T05:19:35.524Z,5.77
2022-09-23T05:22:05.577Z,4.90
2022-09-23T05:24:33.363Z,4.43
2022-09-23T05:27:01.080Z,5.03
2022-09-23T05:29:29.212Z,7.57
2022-09-23T05:31:57.027Z,5.67
2022-09-23T05:34:24.887Z,6.53
2022-09-23T05:36:52.675Z,7.03
2022-09-23T05:39:20.482Z,6.03
2022-09-23T05:41:49.078Z,5.40
2022-09-23T05:44:17.891Z,7.77
2022-09-23T05:46:45.694Z,5.47
2022-09-23T05:49:13.509Z,5.63
2022-09-23T05:51:41.258Z,8.40
2022-09-23T05:54:09.429Z,5.50
2022-09-23T05:56:38.095Z,4.83
2022-09-23T05:59:06.336Z,5.57
2022-09-23T06:01:36.768Z,5.47
2022-09-23T06:04:08.158Z,7.03
2022-09-23T06:06:42.080Z,9.27
2022-09-23T06:09:15.211Z,5.28
2022-09-23T06:11:43.310Z,7.97
2022-09-23T06:14:14.970Z,7.93
2022-09-23T06:16:43.197Z,6.67
2022-09-23T06:19:11.213Z,5.30
2022-09-23T06:21:40.924Z,6.17
2022-09-23T06:24:09.711Z,5.00
2022-09-23T06:26:38.357Z,4.87
2022-09-23T06:29:12.023Z,5.33
2022-09-23T06:31:42.101Z,6.57
2022-09-23T06:34:13.640Z,5.83
2022-09-23T06:36:45.482Z,7.67
2022-09-23T06:39:17.175Z,6.13
2022-09-23T06:41:45.582Z,7.17
2022-09-23T06:44:14.909Z,5.43
2022-09-23T06:46:43.258Z,5.57
2022-09-23T06:49:14.167Z,6.27
2022-09-23T06:51:42.300Z,4.53
2022-09-23T06:54:11.174Z,6.10
2022-09-23T06:56:40.059Z,7.07
2022-09-23T06:59:13.116Z,6.40
2022-09-23T07:01:41.678Z,10.60
2022-09-23T07:04:10.843Z,5.63
2022-09-23T07:06:39.227Z,4.47
2022-09-23T07:09:08.467Z,8.00
2022-09-23T07:11:37.113Z,5.85
2022-09-23T07:14:05.118Z,5.43
2022-09-23T07:16:33.095Z,6.43
2022-09-23T07:19:00.856Z,6.23
2022-09-23T07:21:28.657Z,8.15
2022-09-23T07:23:58.254Z,5.55
2022-09-23T07:26:26.666Z,9.30
2022-09-23T07:29:04.711Z,5.18
2022-09-23T07:31:39.711Z,6.22
2022-09-23T07:34:16.513Z,4.35
2022-09-23T07:36:45.183Z,5.53
2022-09-23T07:39:14.028Z,7.35
2022-09-23T07:41:44.247Z,4.63
2022-09-23T07:44:12.479Z,7.28
2022-09-23T07:46:40.485Z,5.40
2022-09-23T07:49:08.655Z,5.10
2022-09-23T07:51:39.423Z,5.32
2022-09-23T07:54:13.281Z,5.45
2022-09-23T07:59:18.308Z,5.85
2022-09-23T08:01:50.636Z,6.43
2022-09-23T08:04:21.698Z,5.00
2022-09-23T08:06:57.604Z,7.53
2022-09-23T08:09:35.568Z,7.18
2022-09-23T08:12:03.610Z,7.05
2022-09-23T08:14:31.893Z,6.40
2022-09-23T08:16:59.783Z,6.05
2022-09-23T08:19:27.606Z,8.73
2022-09-23T08:21:55.527Z,3.63
2022-09-23T08:24:24.252Z,4.95
2022-09-23T08:26:54.136Z,4.28
2022-09-23T08:29:24.951Z,4.00
2022-09-23T08:31:53.632Z,4.38
2022-09-23T08:34:23.701Z,5.20
2022-09-23T08:36:52.447Z,4.57
2022-09-23T08:39:21.538Z,4.03
2022-09-23T08:42:21.825Z,3.47
2022-09-23T08:44:55.142Z,4.30
2022-09-23T08:47:40.819Z,4.00
2022-09-23T08:50:14.356Z,3.58
2022-09-23T08:53:02.797Z,6.15
2022-09-23T08:55:50.890Z,5.13
2022-09-23T08:58:35.196Z,4.25
2022-09-23T09:01:27.771Z,4.03
2022-09-23T09:04:22.494Z,3.25
2022-09-23T09:07:24.477Z,3.83
2022-09-23T09:10:20.136Z,3.65
2022-09-23T09:13:10.929Z,6.15
2022-09-23T09:16:48.303Z,5.05
2022-09-23T09:19:23.874Z,5.43
2022-09-23T09:21:55.553Z,7.55
2022-09-23T09:24:35.360Z,4.72
2022-09-23T09:27:12.621Z,5.55
2022-09-23T09:29:50.109Z,5.30
2022-09-23T09:32:56.870Z,4.68
2022-09-23T09:35:36.833Z,7.63
2022-09-23T09:38:05.911Z,5.03
2022-09-23T09:40:35.257Z,8.20
2022-09-23T09:43:04.737Z,5.28
2022-09-23T09:46:14.774Z,6.45
2022-09-23T09:49:23.367Z,4.07
2022-09-23T09:52:29.722Z,3.05
2022-09-23T09:55:27.407Z,4.43
2022-09-23T09:58:05.748Z,4.80
2022-09-23T10:00:35.613Z,5.50
2022-09-23T10:03:39.806Z,5.38
2022-09-23T10:06:24.658Z,5.47
2022-09-23T10:09:12.786Z,8.15
2022-09-23T10:11:41.202Z,6.90
2022-09-23T10:14:19.200Z,5.95
2022-09-23T10:17:01.886Z,4.05
2022-09-23T10:19:30.104Z,5.57
2022-09-23T10:22:04.872Z,6.60
2022-09-23T10:24:36.963Z,5.22
2022-09-23T10:27:11.958Z,6.95
2022-09-23T10:29:47.983Z,6.45
2022-09-23T10:32:38.729Z,4.07
2022-09-23T10:35:09.353Z,6.38
2022-09-23T10:37:41.163Z,6.13
2022-09-23T10:40:44.795Z,6.38
2022-09-23T10:43:58.930Z,5.82
2022-09-23T10:46:45.912Z,5.90
2022-09-23T10:49:22.346Z,6.25
2022-09-23T10:52:14.725Z,6.50
2022-09-23T10:55:18.817Z,5.18
2022-09-23T10:57:46.525Z,4.25
2022-09-23T11:00:24.070Z,5.47
2022-09-23T11:03:24.977Z,5.57
2022-09-23T11:06:41.942Z,6.38
2022-09-23T11:09:47.320Z,5.18
2022-09-23T11:12:45.032Z,7.55
2022-09-23T11:16:12.762Z,4.28
2022-09-23T11:19:18.482Z,4.88
2022-09-23T11:22:37.477Z,3.60
2022-09-23T11:25:14.128Z,3.83
2022-09-23T11:28:17.899Z,5.80
2022-09-23T11:31:14.554Z,6.70
2022-09-23T11:33:48.960Z,5.30
2022-09-23T11:36:34.054Z,4.22
2022-09-23T11:39:20.881Z,17.63
2022-09-23T11:41:53.895Z,6.28
2022-09-23T11:44:41.200Z,5.75
2022-09-23T11:47:24.938Z,6.45
2022-09-23T11:50:19.822Z,5.28
2022-09-23T11:53:14.040Z,6.65
2022-09-23T11:58:37.916Z,4.03
2022-09-23T12:01:37.360Z,4.90
2022-09-23T12:04:52.118Z,4.90
2022-09-23T12:07:37.718Z,6.57
2022-09-23T12:10:08.751Z,8.60
2022-09-23T12:12:36.405Z,11.18
2022-09-23T12:15:43.299Z,5.63
2022-09-23T12:18:23.267Z,6.85
2022-09-23T12:21:51.451Z,6.82
2022-09-23T12:24:31.436Z,6.47
2022-09-23T12:27:06.268Z,7.40
2022-09-23T12:29:36.863Z,8.30
2022-09-23T12:32:10.041Z,5.72
2022-09-23T12:34:49.006Z,6.70
2022-09-23T12:37:37.133Z,4.68
2022-09-23T12:40:30.326Z,6.95
2022-09-23T12:43:01.243Z,9.57
2022-09-23T12:45:32.640Z,7.13
2022-09-23T12:48:21.712Z,9.07
2022-09-23T12:51:06.711Z,4.00
2022-09-23T12:53:34.396Z,4.60
2022-09-23T12:56:31.715Z,5.82
2022-09-23T12:59:11.267Z,5.10
2022-09-23T13:01:39.724Z,4.38
2022-09-23T13:05:10.025Z,4.95
2022-09-23T13:07:45.853Z,5.30
2022-09-23T13:10:39.736Z,6.10
2022-09-23T13:13:24.941Z,10.90
2022-09-23T13:15:54.072Z,4.20
2022-09-23T13:18:21.784Z,6.53
2022-09-23T13:20:52.367Z,5.88
2022-09-23T13:23:28.579Z,5.07
2022-09-23T13:26:00.052Z,8.23
2022-09-23T13:28:59.054Z,4.00
2022-09-23T13:31:27.066Z,5.55
2022-09-23T13:34:03.015Z,7.22
2022-09-23T13:36:33.520Z,7.53
2022-09-23T13:39:26.583Z,4.10
2022-09-23T13:42:01.300Z,5.45
2022-09-23T13:44:29.803Z,4.50
2022-09-23T13:47:01.075Z,4.60
2022-09-23T13:49:36.567Z,5.78
2022-09-23T13:52:04.387Z,6.18
2022-09-23T13:54:38.273Z,5.78
2022-09-23T13:57:06.003Z,4.32
2022-09-23T13:59:42.458Z,4.10
2022-09-23T14:02:19.080Z,8.40
2022-09-23T14:04:47.134Z,6.60
2022-09-23T14:07:16.764Z,4.30
2022-09-23T14:09:49.106Z,4.57
2022-09-23T14:12:22.457Z,5.03
2022-09-23T14:17:25.130Z,5.38
2022-09-23T14:19:52.964Z,4.88
2022-09-23T14:22:28.019Z,6.30
2022-09-23T14:24:57.460Z,5.10
2022-09-23T14:27:33.830Z,7.80
2022-09-23T14:30:04.024Z,8.45
2022-09-23T14:32:32.799Z,9.55
2022-09-23T14:35:00.435Z,5.88
2022-09-23T14:37:55.606Z,5.25
2022-09-23T14:40:29.668Z,7.40
2022-09-23T14:43:17.087Z,6.65
2022-09-23T14:45:50.487Z,5.90
2022-09-23T14:51:04.541Z,5.53
2022-09-23T14:53:42.958Z,6.32
2022-09-23T14:56:20.848Z,6.78
2022-09-23T15:10:31.130Z,6.70
2022-09-23T15:13:27.271Z,8.35
2022-09-23T15:15:56.828Z,5.15
2022-09-23T15:18:34.026Z,4.63
2022-09-23T15:49:36.424Z,5.60
2022-09-23T15:52:07.058Z,9.10
2022-09-23T15:54:34.859Z,4.95
2022-09-23T15:57:02.741Z,6.13
2022-09-23T16:44:20.499Z,6.28
2022-09-23T16:46:48.306Z,11.35
2022-09-23T16:49:16.037Z,14.95
2022-09-23T16:51:43.876Z,12.02
2022-09-23T16:54:13.295Z,9.27
2022-09-23T17:14:14.536Z,6.72
2022-09-23T17:16:42.990Z,10.20
2022-09-23T17:19:12.410Z,5.78
2022-09-23T17:21:40.198Z,6.63
2022-09-23T17:24:08.009Z,5.35
2022-09-23T17:26:35.769Z,5.20
2022-09-23T17:29:04.810Z,5.50
2022-09-23T17:51:09.944Z,8.05
2022-09-23T17:53:40.153Z,6.55
2022-09-23T17:56:19.746Z,7.65
2022-09-23T17:58:49.609Z,6.85
2022-09-23T18:20:39.974Z,6.07
2022-09-23T18:23:07.727Z,5.47
2022-09-23T18:25:39.577Z,14.07
2022-09-23T18:28:07.706Z,10.88
2022-09-23T18:47:32.473Z,10.57
2022-09-23T18:50:18.613Z,11.77
2022-09-23T18:52:46.308Z,35.47
2022-09-23T18:55:14.295Z,42.58
2022-09-23T19:22:47.384Z,5.13
2022-09-23T19:25:17.476Z,5.50
2022-09-23T19:27:45.233Z,6.57
2022-09-23T19:30:13.566Z,7.00
2022-09-23T19:52:16.808Z,15.35
2022-09-23T19:54:45.198Z,12.52
2022-09-23T19:57:12.900Z,10.73
2022-09-23T19:59:40.740Z,10.02
2022-09-23T20:27:09.975Z,7.35
2022-09-23T20:29:38.067Z,6.63
2022-09-23T20:32:06.137Z,7.38
2022-09-23T20:34:33.969Z,7.43
2022-09-23T20:37:01.779Z,6.18
2022-09-23T20:39:32.405Z,7.97
2022-09-23T20:42:00.558Z,5.68
2022-09-23T20:44:28.665Z,10.77
2022-09-23T20:46:56.494Z,5.88
2022-09-23T20:49:24.216Z,6.95
2022-09-23T20:51:51.981Z,7.03
2022-09-23T20:54:19.875Z,5.35
2022-09-23T20:56:48.120Z,8.10
2022-09-23T20:59:17.763Z,7.78
2022-09-23T21:01:46.760Z,7.05
2022-09-23T21:04:14.587Z,6.30
2022-09-23T21:06:42.618Z,9.05
2022-09-23T21:09:10.369Z,8.02
2022-09-23T21:11:38.207Z,10.38
2022-09-23T21:14:06.123Z,7.47
2022-09-23T21:16:34.328Z,7.95
2022-09-23T21:19:03.353Z,8.68
2022-09-23T21:21:31.153Z,12.63
2022-09-23T21:24:17.192Z,15.02
2022-09-23T21:26:47.805Z,21.45
2022-09-23T21:29:15.534Z,16.80
2022-09-23T21:31:43.360Z,20.38
2022-09-23T21:34:11.665Z,24.55
2022-09-23T21:36:44.220Z,27.83
2022-09-23T21:39:12.615Z,12.48
2022-09-23T21:41:40.543Z,16.30
2022-09-23T21:44:08.752Z,11.68
2022-09-23T21:46:37.307Z,10.43
2022-09-23T21:49:05.676Z,10.35
2022-09-23T21:51:40.522Z,10.18
2022-09-23T21:54:15.936Z,10.55
2022-09-23T21:56:44.497Z,7.97
2022-09-23T21:59:12.434Z,6.55
2022-09-23T22:01:49.307Z,9.40
2022-09-23T22:04:20.721Z,6.22
2022-09-23T22:06:49.162Z,7.18
2022-09-23T22:09:20.620Z,8.88
2022-09-23T22:12:09.618Z,7.28
2022-09-23T22:14:39.084Z,7.00
2022-09-23T22:17:11.473Z,8.05
2022-09-23T22:19:44.240Z,6.28
2022-09-23T22:22:16.613Z,9.30
2022-09-23T22:24:46.974Z,7.80
2022-09-23T22:27:18.876Z,7.45
2022-09-23T22:30:05.312Z,7.93
2022-09-23T22:32:43.507Z,7.45
2022-09-23T22:35:17.585Z,9.93
2022-09-23T22:40:15.743Z,10.95
2022-09-23T22:42:44.287Z,7.22
2022-09-23T22:45:12.555Z,7.82
2022-09-23T22:47:45.270Z,11.15
2022-09-23T22:50:14.722Z,9.80
2022-09-23T22:52:42.754Z,7.60
2022-09-23T22:55:11.822Z,7.90
2022-09-23T22:57:39.609Z,12.20
2022-09-23T23:00:09.427Z,7.25
2022-09-23T23:02:37.244Z,7.05
2022-09-23T23:05:05.580Z,7.95
2022-09-23T23:07:35.082Z,8.05
2022-09-23T23:10:04.002Z,6.90
2022-09-23T23:12:33.465Z,7.25
2022-09-23T23:15:01.239Z,7.15
2022-09-23T23:17:29.803Z,5.72
2022-09-23T23:19:58.015Z,6.78
2022-09-23T23:22:28.658Z,10.93
2022-09-23T23:24:56.726Z,9.77
2022-09-23T23:27:24.559Z,8.00
2022-09-23T23:29:52.302Z,7.95
2022-09-23T23:32:20.022Z,7.13
2022-09-23T23:34:47.757Z,7.40
2022-09-23T23:37:20.080Z,8.73
2022-09-23T23:39:48.634Z,8.85
2022-09-23T23:42:16.342Z,9.20
2022-09-23T23:44:44.414Z,9.23
2022-09-23T23:47:13.281Z,10.32
2022-09-23T23:49:41.024Z,8.98
2022-09-23T23:52:08.894Z,5.35
2022-09-23T23:54:36.645Z,7.82
2022-09-23T23:57:04.570Z,6.50
2022-09-23T23:59:34.362Z,8.07
